sensor_id;sensor_type;location;lat;lon;timestamp;temperature;humidity
14170;DHT22;63889;50.596;8.690;2023-11-18T00:00:11;2.60;99.90
14170;DHT22;63889;50.596;8.690;2023-11-18T00:02:38;2.70;99.90
14170;DHT22;63889;50.596;8.690;2023-11-18T00:05:04;2.70;99.90
14170;DHT22;63889;50.596;8.690;2023-11-18T00:07:29;2.90;99.90
14170;DHT22;63889;50.596;8.690;2023-11-18T00:09:57;2.90;99.90
14170;DHT22;63889;50.596;8.690;2023-11-18T00:12:23;2.90;99.90
14170;DHT22;63889;50.596;8.690;2023-11-18T00:14:49;2.80;99.90
14170;DHT22;63889;50.596;8.690;2023-11-18T00:17:15;2.60;99.90
14170;DHT22;63889;50.596;8.690;2023-11-18T00:19:41;2.40;99.90
14170;DHT22;63889;50.596;8.690;2023-11-18T00:22:08;2.40;99.90
14170;DHT22;63889;50.596;8.690;2023-11-18T00:24:33;2.50;99.90
14170;DHT22;63889;50.596;8.690;2023-11-18T00:27:03;2.40;99.90
14170;DHT22;63889;50.596;8.690;2023-11-18T00:29:33;2.40;99.90
14170;DHT22;63889;50.596;8.690;2023-11-18T00:31:59;2.60;99.90
14170;DHT22;63889;50.596;8.690;2023-11-18T00:34:25;3.00;99.90
14170;DHT22;63889;50.596;8.690;2023-11-18T00:36:51;3.30;99.90
14170;DHT22;63889;50.596;8.690;2023-11-18T00:39:17;3.50;99.90
14170;DHT22;63889;50.596;8.690;2023-11-18T00:41:43;3.70;99.90
14170;DHT22;63889;50.596;8.690;2023-11-18T00:44:08;3.80;99.90
14170;DHT22;63889;50.596;8.690;2023-11-18T00:46:35;3.90;99.90
14170;DHT22;63889;50.596;8.690;2023-11-18T00:49:02;3.70;99.90
14170;DHT22;63889;50.596;8.690;2023-11-18T00:51:28;3.70;99.90
14170;DHT22;63889;50.596;8.690;2023-11-18T00:53:54;3.50;99.90
14170;DHT22;63889;50.596;8.690;2023-11-18T00:56:20;3.30;99.90
14170;DHT22;63889;50.596;8.690;2023-11-18T00:58:47;3.20;99.90
14170;DHT22;63889;50.596;8.690;2023-11-18T01:01:13;3.30;99.90
14170;DHT22;63889;50.596;8.690;2023-11-18T01:03:38;3.50;99.90
14170;DHT22;63889;50.596;8.690;2023-11-18T01:06:04;3.50;99.90
14170;DHT22;63889;50.596;8.690;2023-11-18T01:08:31;3.40;99.90
14170;DHT22;63889;50.596;8.690;2023-11-18T01:10:57;3.30;99.90
14170;DHT22;63889;50.596;8.690;2023-11-18T01:13:23;3.20;99.90
14170;DHT22;63889;50.596;8.690;2023-11-18T01:15:48;3.10;99.90
14170;DHT22;63889;50.596;8.690;2023-11-18T01:18:14;3.10;99.90
14170;DHT22;63889;50.596;8.690;2023-11-18T01:20:40;3.20;99.90
14170;DHT22;63889;50.596;8.690;2023-11-18T01:23:06;3.20;99.90
14170;DHT22;63889;50.596;8.690;2023-11-18T01:25:31;3.30;99.90
14170;DHT22;63889;50.596;8.690;2023-11-18T01:27:57;3.30;99.90
14170;DHT22;63889;50.596;8.690;2023-11-18T01:30:22;3.20;99.90
14170;DHT22;63889;50.596;8.690;2023-11-18T01:32:49;3.20;99.90
14170;DHT22;63889;50.596;8.690;2023-11-18T01:35:15;3.20;99.90
14170;DHT22;63889;50.596;8.690;2023-11-18T01:37:40;3.30;99.90
14170;DHT22;63889;50.596;8.690;2023-11-18T01:40:06;3.30;99.90
14170;DHT22;63889;50.596;8.690;2023-11-18T01:42:33;3.30;99.90
14170;DHT22;63889;50.596;8.690;2023-11-18T01:44:59;3.30;99.90
14170;DHT22;63889;50.596;8.690;2023-11-18T01:47:29;3.30;99.90
14170;DHT22;63889;50.596;8.690;2023-11-18T01:49:58;3.30;99.90
14170;DHT22;63889;50.596;8.690;2023-11-18T01:52:26;3.30;99.90
14170;DHT22;63889;50.596;8.690;2023-11-18T01:54:53;3.30;99.90
14170;DHT22;63889;50.596;8.690;2023-11-18T01:57:20;3.20;99.90
14170;DHT22;63889;50.596;8.690;2023-11-18T01:59:46;3.00;99.90
14170;DHT22;63889;50.596;8.690;2023-11-18T02:02:12;3.10;99.90
14170;DHT22;63889;50.596;8.690;2023-11-18T02:04:38;3.00;99.90
14170;DHT22;63889;50.596;8.690;2023-11-18T02:07:04;3.00;99.90
14170;DHT22;63889;50.596;8.690;2023-11-18T02:09:34;3.00;99.90
14170;DHT22;63889;50.596;8.690;2023-11-18T02:14:39;3.00;99.90
14170;DHT22;63889;50.596;8.690;2023-11-18T02:17:05;2.80;99.90
14170;DHT22;63889;50.596;8.690;2023-11-18T02:19:32;2.90;99.90
14170;DHT22;63889;50.596;8.690;2023-11-18T02:22:00;3.10;99.90
14170;DHT22;63889;50.596;8.690;2023-11-18T02:24:27;2.90;99.90
14170;DHT22;63889;50.596;8.690;2023-11-18T02:26:56;3.00;99.90
14170;DHT22;63889;50.596;8.690;2023-11-18T02:29:22;3.00;99.90
14170;DHT22;63889;50.596;8.690;2023-11-18T02:31:52;3.10;99.90
14170;DHT22;63889;50.596;8.690;2023-11-18T02:34:26;3.20;99.90
14170;DHT22;63889;50.596;8.690;2023-11-18T02:36:53;3.20;99.90
14170;DHT22;63889;50.596;8.690;2023-11-18T02:39:36;3.20;99.90
14170;DHT22;63889;50.596;8.690;2023-11-18T02:42:07;3.20;99.90
14170;DHT22;63889;50.596;8.690;2023-11-18T02:44:35;3.10;99.90
14170;DHT22;63889;50.596;8.690;2023-11-18T02:47:01;3.20;99.90
14170;DHT22;63889;50.596;8.690;2023-11-18T02:49:29;3.30;99.90
14170;DHT22;63889;50.596;8.690;2023-11-18T02:51:55;3.40;99.90
14170;DHT22;63889;50.596;8.690;2023-11-18T02:54:21;3.50;99.90
14170;DHT22;63889;50.596;8.690;2023-11-18T02:56:47;3.50;99.90
14170;DHT22;63889;50.596;8.690;2023-11-18T02:59:15;3.50;99.90
14170;DHT22;63889;50.596;8.690;2023-11-18T03:01:41;3.50;99.90
14170;DHT22;63889;50.596;8.690;2023-11-18T03:04:06;3.60;99.90
14170;DHT22;63889;50.596;8.690;2023-11-18T03:06:33;3.60;99.90
14170;DHT22;63889;50.596;8.690;2023-11-18T03:09:00;3.70;99.90
14170;DHT22;63889;50.596;8.690;2023-11-18T03:11:26;3.70;99.90
14170;DHT22;63889;50.596;8.690;2023-11-18T03:13:55;3.50;99.90
14170;DHT22;63889;50.596;8.690;2023-11-18T03:16:22;3.50;99.90
14170;DHT22;63889;50.596;8.690;2023-11-18T03:18:47;3.40;99.90
14170;DHT22;63889;50.596;8.690;2023-11-18T03:21:13;3.50;99.90
14170;DHT22;63889;50.596;8.690;2023-11-18T03:23:39;3.60;99.90
14170;DHT22;63889;50.596;8.690;2023-11-18T03:26:06;3.60;99.90
14170;DHT22;63889;50.596;8.690;2023-11-18T03:28:32;3.90;99.90
14170;DHT22;63889;50.596;8.690;2023-11-18T03:30:57;4.00;99.90
14170;DHT22;63889;50.596;8.690;2023-11-18T03:33:23;4.10;99.90
14170;DHT22;63889;50.596;8.690;2023-11-18T03:35:49;4.10;99.90
14170;DHT22;63889;50.596;8.690;2023-11-18T03:38:14;3.90;99.90
14170;DHT22;63889;50.596;8.690;2023-11-18T03:40:42;3.80;99.90
14170;DHT22;63889;50.596;8.690;2023-11-18T03:43:13;3.80;99.90
14170;DHT22;63889;50.596;8.690;2023-11-18T03:45:39;3.70;99.90
14170;DHT22;63889;50.596;8.690;2023-11-18T03:48:05;3.70;99.90
14170;DHT22;63889;50.596;8.690;2023-11-18T03:50:32;3.80;99.90
14170;DHT22;63889;50.596;8.690;2023-11-18T03:52:59;3.90;99.90
14170;DHT22;63889;50.596;8.690;2023-11-18T03:55:26;3.90;99.90
14170;DHT22;63889;50.596;8.690;2023-11-18T03:57:52;3.90;99.90
14170;DHT22;63889;50.596;8.690;2023-11-18T04:00:18;3.70;99.90
14170;DHT22;63889;50.596;8.690;2023-11-18T04:02:45;3.70;99.90
14170;DHT22;63889;50.596;8.690;2023-11-18T04:05:11;3.50;99.90
14170;DHT22;63889;50.596;8.690;2023-11-18T04:07:37;3.30;99.90
14170;DHT22;63889;50.596;8.690;2023-11-18T04:10:03;3.20;99.90
14170;DHT22;63889;50.596;8.690;2023-11-18T04:12:32;3.30;99.90
14170;DHT22;63889;50.596;8.690;2023-11-18T04:14:57;3.50;99.90
14170;DHT22;63889;50.596;8.690;2023-11-18T04:17:23;3.60;99.90
14170;DHT22;63889;50.596;8.690;2023-11-18T04:19:48;3.70;99.90
14170;DHT22;63889;50.596;8.690;2023-11-18T04:22:14;3.90;99.90
14170;DHT22;63889;50.596;8.690;2023-11-18T04:24:39;4.00;99.90
14170;DHT22;63889;50.596;8.690;2023-11-18T04:27:05;3.80;99.90
14170;DHT22;63889;50.596;8.690;2023-11-18T04:29:30;3.80;99.90
14170;DHT22;63889;50.596;8.690;2023-11-18T04:31:56;3.60;99.90
14170;DHT22;63889;50.596;8.690;2023-11-18T04:34:21;3.60;99.90
14170;DHT22;63889;50.596;8.690;2023-11-18T04:36:47;3.60;99.90
14170;DHT22;63889;50.596;8.690;2023-11-18T04:39:13;3.60;99.90
14170;DHT22;63889;50.596;8.690;2023-11-18T04:41:41;3.80;99.90
14170;DHT22;63889;50.596;8.690;2023-11-18T04:44:06;3.80;99.90
14170;DHT22;63889;50.596;8.690;2023-11-18T04:46:32;3.80;99.90
14170;DHT22;63889;50.596;8.690;2023-11-18T04:48:57;3.80;99.90
14170;DHT22;63889;50.596;8.690;2023-11-18T04:51:24;3.70;99.90
14170;DHT22;63889;50.596;8.690;2023-11-18T04:53:49;3.80;99.90
14170;DHT22;63889;50.596;8.690;2023-11-18T04:56:15;3.90;99.90
14170;DHT22;63889;50.596;8.690;2023-11-18T04:58:43;3.90;99.90
14170;DHT22;63889;50.596;8.690;2023-11-18T05:01:13;4.00;99.90
14170;DHT22;63889;50.596;8.690;2023-11-18T05:03:38;3.80;99.90
14170;DHT22;63889;50.596;8.690;2023-11-18T05:06:04;3.80;99.90
14170;DHT22;63889;50.596;8.690;2023-11-18T05:08:30;3.80;99.90
14170;DHT22;63889;50.596;8.690;2023-11-18T05:10:56;3.80;99.90
14170;DHT22;63889;50.596;8.690;2023-11-18T05:13:23;3.60;99.90
14170;DHT22;63889;50.596;8.690;2023-11-18T05:15:48;3.50;99.90
14170;DHT22;63889;50.596;8.690;2023-11-18T05:18:15;3.50;99.90
14170;DHT22;63889;50.596;8.690;2023-11-18T05:20:41;3.40;99.90
14170;DHT22;63889;50.596;8.690;2023-11-18T05:23:08;3.40;99.90
14170;DHT22;63889;50.596;8.690;2023-11-18T05:25:44;3.40;99.90
14170;DHT22;63889;50.596;8.690;2023-11-18T05:28:09;3.40;99.90
14170;DHT22;63889;50.596;8.690;2023-11-18T05:30:36;3.40;99.90
14170;DHT22;63889;50.596;8.690;2023-11-18T05:33:05;3.40;99.90
14170;DHT22;63889;50.596;8.690;2023-11-18T05:35:31;3.40;99.90
14170;DHT22;63889;50.596;8.690;2023-11-18T05:37:58;3.40;99.90
14170;DHT22;63889;50.596;8.690;2023-11-18T05:40:24;3.50;99.90
14170;DHT22;63889;50.596;8.690;2023-11-18T05:42:50;3.60;99.90
14170;DHT22;63889;50.596;8.690;2023-11-18T05:45:18;3.60;99.90
14170;DHT22;63889;50.596;8.690;2023-11-18T05:47:56;3.50;99.90
14170;DHT22;63889;50.596;8.690;2023-11-18T05:50:22;3.40;99.90
14170;DHT22;63889;50.596;8.690;2023-11-18T05:52:50;3.10;99.90
14170;DHT22;63889;50.596;8.690;2023-11-18T05:55:16;3.00;99.90
14170;DHT22;63889;50.596;8.690;2023-11-18T05:57:41;3.20;99.90
14170;DHT22;63889;50.596;8.690;2023-11-18T06:00:14;3.20;99.90
14170;DHT22;63889;50.596;8.690;2023-11-18T06:02:41;3.20;99.90
14170;DHT22;63889;50.596;8.690;2023-11-18T06:05:08;3.30;99.90
14170;DHT22;63889;50.596;8.690;2023-11-18T06:07:34;3.30;99.90
14170;DHT22;63889;50.596;8.690;2023-11-18T06:10:00;3.20;99.90
14170;DHT22;63889;50.596;8.690;2023-11-18T06:12:41;3.30;99.90
14170;DHT22;63889;50.596;8.690;2023-11-18T06:15:07;3.40;99.90
14170;DHT22;63889;50.596;8.690;2023-11-18T06:17:34;3.50;99.90
14170;DHT22;63889;50.596;8.690;2023-11-18T06:20:00;3.50;99.90
14170;DHT22;63889;50.596;8.690;2023-11-18T06:22:25;3.40;99.90
14170;DHT22;63889;50.596;8.690;2023-11-18T06:24:51;3.50;99.90
14170;DHT22;63889;50.596;8.690;2023-11-18T06:27:18;3.40;99.90
14170;DHT22;63889;50.596;8.690;2023-11-18T06:29:49;3.40;99.90
14170;DHT22;63889;50.596;8.690;2023-11-18T06:32:15;3.40;99.90
14170;DHT22;63889;50.596;8.690;2023-11-18T06:34:41;3.20;99.90
14170;DHT22;63889;50.596;8.690;2023-11-18T06:37:07;3.10;99.90
14170;DHT22;63889;50.596;8.690;2023-11-18T06:39:32;3.20;99.90
14170;DHT22;63889;50.596;8.690;2023-11-18T06:42:00;3.20;99.90
14170;DHT22;63889;50.596;8.690;2023-11-18T06:44:28;3.40;99.90
14170;DHT22;63889;50.596;8.690;2023-11-18T06:46:54;3.40;99.90
14170;DHT22;63889;50.596;8.690;2023-11-18T06:49:19;3.50;99.90
14170;DHT22;63889;50.596;8.690;2023-11-18T06:51:45;3.60;99.90
14170;DHT22;63889;50.596;8.690;2023-11-18T06:54:11;3.60;99.90
14170;DHT22;63889;50.596;8.690;2023-11-18T06:56:42;3.60;99.90
14170;DHT22;63889;50.596;8.690;2023-11-18T06:59:11;3.50;99.90
14170;DHT22;63889;50.596;8.690;2023-11-18T07:01:40;3.50;99.90
14170;DHT22;63889;50.596;8.690;2023-11-18T07:04:06;3.50;99.90
14170;DHT22;63889;50.596;8.690;2023-11-18T07:06:35;3.60;99.90
14170;DHT22;63889;50.596;8.690;2023-11-18T07:09:04;3.60;99.90
14170;DHT22;63889;50.596;8.690;2023-11-18T07:11:37;3.70;99.90
14170;DHT22;63889;50.596;8.690;2023-11-18T07:14:03;3.70;99.90
14170;DHT22;63889;50.596;8.690;2023-11-18T07:16:28;3.60;99.90
14170;DHT22;63889;50.596;8.690;2023-11-18T07:18:54;3.70;99.90
14170;DHT22;63889;50.596;8.690;2023-11-18T07:21:19;3.60;99.90
14170;DHT22;63889;50.596;8.690;2023-11-18T07:23:45;3.70;99.90
14170;DHT22;63889;50.596;8.690;2023-11-18T07:26:11;3.70;99.90
14170;DHT22;63889;50.596;8.690;2023-11-18T07:28:37;3.70;99.90
14170;DHT22;63889;50.596;8.690;2023-11-18T07:31:02;3.70;99.90
14170;DHT22;63889;50.596;8.690;2023-11-18T07:33:31;3.80;99.90
14170;DHT22;63889;50.596;8.690;2023-11-18T07:35:58;3.80;99.90
14170;DHT22;63889;50.596;8.690;2023-11-18T07:38:24;3.90;99.90
14170;DHT22;63889;50.596;8.690;2023-11-18T07:40:49;3.90;99.90
14170;DHT22;63889;50.596;8.690;2023-11-18T07:43:18;4.00;99.90
14170;DHT22;63889;50.596;8.690;2023-11-18T07:45:47;4.00;99.90
14170;DHT22;63889;50.596;8.690;2023-11-18T07:48:15;4.00;99.90
14170;DHT22;63889;50.596;8.690;2023-11-18T07:50:43;3.90;99.90
14170;DHT22;63889;50.596;8.690;2023-11-18T07:53:18;3.90;99.90
14170;DHT22;63889;50.596;8.690;2023-11-18T07:55:43;3.90;99.90
14170;DHT22;63889;50.596;8.690;2023-11-18T07:58:11;4.00;99.90
14170;DHT22;63889;50.596;8.690;2023-11-18T08:00:43;4.10;99.90
14170;DHT22;63889;50.596;8.690;2023-11-18T08:03:10;4.00;99.90
14170;DHT22;63889;50.596;8.690;2023-11-18T08:05:43;3.80;99.90
14170;DHT22;63889;50.596;8.690;2023-11-18T08:08:17;3.90;99.90
14170;DHT22;63889;50.596;8.690;2023-11-18T08:10:42;3.90;99.90
14170;DHT22;63889;50.596;8.690;2023-11-18T08:13:10;3.80;99.90
14170;DHT22;63889;50.596;8.690;2023-11-18T08:15:43;3.60;99.90
14170;DHT22;63889;50.596;8.690;2023-11-18T08:18:11;3.60;99.90
14170;DHT22;63889;50.596;8.690;2023-11-18T08:20:36;3.70;99.90
14170;DHT22;63889;50.596;8.690;2023-11-18T08:23:03;3.70;99.90
14170;DHT22;63889;50.596;8.690;2023-11-18T08:25:30;3.70;99.90
14170;DHT22;63889;50.596;8.690;2023-11-18T08:27:58;3.50;99.90
14170;DHT22;63889;50.596;8.690;2023-11-18T08:30:23;3.60;99.90
14170;DHT22;63889;50.596;8.690;2023-11-18T08:32:49;3.70;99.90
14170;DHT22;63889;50.596;8.690;2023-11-18T08:35:14;3.70;99.90
14170;DHT22;63889;50.596;8.690;2023-11-18T08:37:42;3.70;99.90
14170;DHT22;63889;50.596;8.690;2023-11-18T08:40:09;3.60;99.90
14170;DHT22;63889;50.596;8.690;2023-11-18T08:42:46;3.60;99.90
14170;DHT22;63889;50.596;8.690;2023-11-18T08:45:28;3.60;99.90
14170;DHT22;63889;50.596;8.690;2023-11-18T08:47:58;3.60;99.90
14170;DHT22;63889;50.596;8.690;2023-11-18T08:50:24;4.00;99.90
14170;DHT22;63889;50.596;8.690;2023-11-18T08:52:53;4.00;99.90
14170;DHT22;63889;50.596;8.690;2023-11-18T08:55:23;4.10;99.90
14170;DHT22;63889;50.596;8.690;2023-11-18T08:57:59;4.40;99.90
14170;DHT22;63889;50.596;8.690;2023-11-18T09:00:29;4.60;99.90
14170;DHT22;63889;50.596;8.690;2023-11-18T09:03:25;4.70;99.90
14170;DHT22;63889;50.596;8.690;2023-11-18T09:05:58;4.60;99.90
14170;DHT22;63889;50.596;8.690;2023-11-18T09:08:24;4.90;99.90
14170;DHT22;63889;50.596;8.690;2023-11-18T09:10:50;5.00;99.90
14170;DHT22;63889;50.596;8.690;2023-11-18T09:13:23;5.20;99.90
14170;DHT22;63889;50.596;8.690;2023-11-18T09:15:57;5.20;99.90
14170;DHT22;63889;50.596;8.690;2023-11-18T09:18:24;5.00;99.90
14170;DHT22;63889;50.596;8.690;2023-11-18T09:20:50;4.70;99.90
14170;DHT22;63889;50.596;8.690;2023-11-18T09:23:18;4.40;99.90
14170;DHT22;63889;50.596;8.690;2023-11-18T09:25:46;4.30;99.90
14170;DHT22;63889;50.596;8.690;2023-11-18T09:28:16;4.30;99.90
14170;DHT22;63889;50.596;8.690;2023-11-18T09:30:43;4.30;99.90
14170;DHT22;63889;50.596;8.690;2023-11-18T09:33:18;4.30;99.90
14170;DHT22;63889;50.596;8.690;2023-11-18T09:35:51;4.30;99.90
14170;DHT22;63889;50.596;8.690;2023-11-18T09:38:17;4.30;99.90
14170;DHT22;63889;50.596;8.690;2023-11-18T09:40:43;4.30;99.90
14170;DHT22;63889;50.596;8.690;2023-11-18T09:43:11;4.40;99.90
14170;DHT22;63889;50.596;8.690;2023-11-18T09:45:39;4.30;99.90
14170;DHT22;63889;50.596;8.690;2023-11-18T09:48:06;4.40;99.90
14170;DHT22;63889;50.596;8.690;2023-11-18T09:50:33;4.50;99.90
14170;DHT22;63889;50.596;8.690;2023-11-18T09:53:01;4.60;99.90
14170;DHT22;63889;50.596;8.690;2023-11-18T09:55:42;4.50;99.90
14170;DHT22;63889;50.596;8.690;2023-11-18T09:58:15;4.60;99.90
14170;DHT22;63889;50.596;8.690;2023-11-18T10:00:41;4.80;99.90
14170;DHT22;63889;50.596;8.690;2023-11-18T10:03:07;4.80;99.90
14170;DHT22;63889;50.596;8.690;2023-11-18T10:05:36;4.60;99.90
14170;DHT22;63889;50.596;8.690;2023-11-18T10:08:03;4.70;99.90
14170;DHT22;63889;50.596;8.690;2023-11-18T10:10:31;4.70;99.90
14170;DHT22;63889;50.596;8.690;2023-11-18T10:13:02;4.60;99.90
14170;DHT22;63889;50.596;8.690;2023-11-18T10:15:30;4.70;99.90
14170;DHT22;63889;50.596;8.690;2023-11-18T10:17:57;4.90;99.90
14170;DHT22;63889;50.596;8.690;2023-11-18T10:20:43;5.00;99.90
14170;DHT22;63889;50.596;8.690;2023-11-18T10:23:16;5.10;99.90
14170;DHT22;63889;50.596;8.690;2023-11-18T10:25:55;5.10;99.90
14170;DHT22;63889;50.596;8.690;2023-11-18T10:28:27;5.10;99.90
14170;DHT22;63889;50.596;8.690;2023-11-18T10:30:54;5.10;99.90
14170;DHT22;63889;50.596;8.690;2023-11-18T10:33:24;5.30;99.90
14170;DHT22;63889;50.596;8.690;2023-11-18T10:35:56;5.20;99.90
14170;DHT22;63889;50.596;8.690;2023-11-18T10:38:22;5.30;99.90
14170;DHT22;63889;50.596;8.690;2023-11-18T10:40:55;5.40;99.90
14170;DHT22;63889;50.596;8.690;2023-11-18T10:43:24;5.20;99.90
14170;DHT22;63889;50.596;8.690;2023-11-18T10:46:10;5.10;99.90
14170;DHT22;63889;50.596;8.690;2023-11-18T10:48:47;5.20;99.90
14170;DHT22;63889;50.596;8.690;2023-11-18T10:51:22;5.30;99.90
14170;DHT22;63889;50.596;8.690;2023-11-18T10:53:53;5.50;99.90
14170;DHT22;63889;50.596;8.690;2023-11-18T10:56:22;5.40;99.90
14170;DHT22;63889;50.596;8.690;2023-11-18T10:58:59;5.50;99.90
14170;DHT22;63889;50.596;8.690;2023-11-18T11:01:35;5.70;99.90
14170;DHT22;63889;50.596;8.690;2023-11-18T11:04:11;5.80;99.90
14170;DHT22;63889;50.596;8.690;2023-11-18T11:06:42;5.70;99.90
14170;DHT22;63889;50.596;8.690;2023-11-18T11:09:08;5.80;99.90
14170;DHT22;63889;50.596;8.690;2023-11-18T11:11:59;5.90;99.90
14170;DHT22;63889;50.596;8.690;2023-11-18T11:14:33;5.90;99.90
14170;DHT22;63889;50.596;8.690;2023-11-18T11:17:06;5.70;99.90
14170;DHT22;63889;50.596;8.690;2023-11-18T11:20:00;5.50;99.90
14170;DHT22;63889;50.596;8.690;2023-11-18T11:25:45;5.30;99.90
14170;DHT22;63889;50.596;8.690;2023-11-18T11:28:19;5.50;99.90
14170;DHT22;63889;50.596;8.690;2023-11-18T11:30:50;5.60;99.90
14170;DHT22;63889;50.596;8.690;2023-11-18T11:34:04;5.60;99.90
14170;DHT22;63889;50.596;8.690;2023-11-18T11:36:42;5.60;99.90
14170;DHT22;63889;50.596;8.690;2023-11-18T11:39:09;5.40;99.90
14170;DHT22;63889;50.596;8.690;2023-11-18T11:41:44;5.50;99.90
14170;DHT22;63889;50.596;8.690;2023-11-18T11:44:13;5.60;99.90
14170;DHT22;63889;50.596;8.690;2023-11-18T11:46:38;5.70;99.90
14170;DHT22;63889;50.596;8.690;2023-11-18T11:49:09;5.80;99.90
14170;DHT22;63889;50.596;8.690;2023-11-18T11:54:34;5.90;99.90
14170;DHT22;63889;50.596;8.690;2023-11-18T11:57:02;6.00;99.90
14170;DHT22;63889;50.596;8.690;2023-11-18T12:02:13;6.20;99.90
14170;DHT22;63889;50.596;8.690;2023-11-18T12:04:44;6.10;99.90
14170;DHT22;63889;50.596;8.690;2023-11-18T12:07:10;6.00;99.90
14170;DHT22;63889;50.596;8.690;2023-11-18T12:09:40;5.90;99.90
14170;DHT22;63889;50.596;8.690;2023-11-18T12:12:17;6.00;99.90
14170;DHT22;63889;50.596;8.690;2023-11-18T12:14:51;6.20;99.90
14170;DHT22;63889;50.596;8.690;2023-11-18T12:17:25;6.40;99.90
14170;DHT22;63889;50.596;8.690;2023-11-18T12:19:57;6.50;99.90
14170;DHT22;63889;50.596;8.690;2023-11-18T12:23:03;6.70;99.90
14170;DHT22;63889;50.596;8.690;2023-11-18T12:25:42;6.50;99.90
14170;DHT22;63889;50.596;8.690;2023-11-18T12:28:09;6.60;99.90
14170;DHT22;63889;50.596;8.690;2023-11-18T12:33:04;6.40;99.90
14170;DHT22;63889;50.596;8.690;2023-11-18T12:41:36;6.30;99.90
14170;DHT22;63889;50.596;8.690;2023-11-18T12:44:15;6.60;99.90
14170;DHT22;63889;50.596;8.690;2023-11-18T12:46:54;6.60;99.90
14170;DHT22;63889;50.596;8.690;2023-11-18T12:49:24;6.70;99.90
14170;DHT22;63889;50.596;8.690;2023-11-18T12:51:55;6.50;99.90
14170;DHT22;63889;50.596;8.690;2023-11-18T12:54:22;6.60;99.90
14170;DHT22;63889;50.596;8.690;2023-11-18T12:56:50;6.70;99.90
14170;DHT22;63889;50.596;8.690;2023-11-18T12:59:19;6.70;99.90
14170;DHT22;63889;50.596;8.690;2023-11-18T13:01:52;6.70;99.90
14170;DHT22;63889;50.596;8.690;2023-11-18T13:04:22;6.50;99.90
14170;DHT22;63889;50.596;8.690;2023-11-18T13:06:49;6.60;99.90
14170;DHT22;63889;50.596;8.690;2023-11-18T13:09:17;6.70;99.90
14170;DHT22;63889;50.596;8.690;2023-11-18T13:11:59;6.80;99.90
14170;DHT22;63889;50.596;8.690;2023-11-18T13:14:26;6.90;99.90
14170;DHT22;63889;50.596;8.690;2023-11-18T13:16:55;6.90;99.90
14170;DHT22;63889;50.596;8.690;2023-11-18T13:19:28;7.10;99.90
14170;DHT22;63889;50.596;8.690;2023-11-18T13:21:58;7.10;99.90
14170;DHT22;63889;50.596;8.690;2023-11-18T13:24:25;7.00;99.90
14170;DHT22;63889;50.596;8.690;2023-11-18T13:26:53;7.00;99.90
14170;DHT22;63889;50.596;8.690;2023-11-18T13:29:20;7.00;99.90
14170;DHT22;63889;50.596;8.690;2023-11-18T13:31:47;6.90;99.90
14170;DHT22;63889;50.596;8.690;2023-11-18T13:34:13;7.00;99.90
14170;DHT22;63889;50.596;8.690;2023-11-18T13:36:39;7.00;99.90
14170;DHT22;63889;50.596;8.690;2023-11-18T13:39:05;7.00;99.90
14170;DHT22;63889;50.596;8.690;2023-11-18T13:41:32;6.80;99.90
14170;DHT22;63889;50.596;8.690;2023-11-18T13:43:58;6.70;99.90
14170;DHT22;63889;50.596;8.690;2023-11-18T13:46:24;6.60;99.90
14170;DHT22;63889;50.596;8.690;2023-11-18T13:48:51;6.60;99.90
14170;DHT22;63889;50.596;8.690;2023-11-18T13:51:18;6.70;99.90
14170;DHT22;63889;50.596;8.690;2023-11-18T13:53:45;6.70;99.90
14170;DHT22;63889;50.596;8.690;2023-11-18T13:56:14;6.70;99.90
14170;DHT22;63889;50.596;8.690;2023-11-18T13:58:42;6.70;99.90
14170;DHT22;63889;50.596;8.690;2023-11-18T14:01:10;6.70;99.90
14170;DHT22;63889;50.596;8.690;2023-11-18T14:03:36;6.80;99.90
14170;DHT22;63889;50.596;8.690;2023-11-18T14:06:05;6.80;99.90
14170;DHT22;63889;50.596;8.690;2023-11-18T14:08:30;6.70;99.90
14170;DHT22;63889;50.596;8.690;2023-11-18T14:10:56;6.70;99.90
14170;DHT22;63889;50.596;8.690;2023-11-18T14:13:22;6.70;99.90
14170;DHT22;63889;50.596;8.690;2023-11-18T14:15:48;6.70;99.90
14170;DHT22;63889;50.596;8.690;2023-11-18T14:18:14;6.80;99.90
14170;DHT22;63889;50.596;8.690;2023-11-18T14:20:40;6.80;99.90
14170;DHT22;63889;50.596;8.690;2023-11-18T14:23:06;6.80;99.90
14170;DHT22;63889;50.596;8.690;2023-11-18T14:25:32;6.70;99.90
14170;DHT22;63889;50.596;8.690;2023-11-18T14:27:58;6.70;99.90
14170;DHT22;63889;50.596;8.690;2023-11-18T14:30:23;6.70;99.90
14170;DHT22;63889;50.596;8.690;2023-11-18T14:32:52;6.90;99.90
14170;DHT22;63889;50.596;8.690;2023-11-18T14:35:18;7.10;99.90
14170;DHT22;63889;50.596;8.690;2023-11-18T14:37:44;7.20;99.90
14170;DHT22;63889;50.596;8.690;2023-11-18T14:40:14;7.20;99.90
14170;DHT22;63889;50.596;8.690;2023-11-18T14:42:44;7.20;99.90
14170;DHT22;63889;50.596;8.690;2023-11-18T14:45:12;7.10;99.90
14170;DHT22;63889;50.596;8.690;2023-11-18T14:47:39;7.20;99.90
14170;DHT22;63889;50.596;8.690;2023-11-18T14:50:05;7.10;99.90
14170;DHT22;63889;50.596;8.690;2023-11-18T14:52:40;7.20;99.90
14170;DHT22;63889;50.596;8.690;2023-11-18T14:55:07;7.20;99.90
14170;DHT22;63889;50.596;8.690;2023-11-18T14:57:40;7.30;99.90
14170;DHT22;63889;50.596;8.690;2023-11-18T15:00:07;7.30;99.90
14170;DHT22;63889;50.596;8.690;2023-11-18T15:02:33;7.40;99.90
14170;DHT22;63889;50.596;8.690;2023-11-18T15:05:00;7.40;99.90
14170;DHT22;63889;50.596;8.690;2023-11-18T15:07:26;7.30;99.90
14170;DHT22;63889;50.596;8.690;2023-11-18T15:09:51;7.30;99.90
14170;DHT22;63889;50.596;8.690;2023-11-18T15:12:17;7.20;99.90
14170;DHT22;63889;50.596;8.690;2023-11-18T15:14:45;7.20;99.90
14170;DHT22;63889;50.596;8.690;2023-11-18T15:17:10;7.10;99.90
14170;DHT22;63889;50.596;8.690;2023-11-18T15:19:39;7.10;99.90
14170;DHT22;63889;50.596;8.690;2023-11-18T15:22:04;7.20;99.90
14170;DHT22;63889;50.596;8.690;2023-11-18T15:24:30;7.10;99.90
14170;DHT22;63889;50.596;8.690;2023-11-18T15:26:57;7.00;99.90
14170;DHT22;63889;50.596;8.690;2023-11-18T15:29:25;7.10;99.90
14170;DHT22;63889;50.596;8.690;2023-11-18T15:31:58;7.20;99.90
14170;DHT22;63889;50.596;8.690;2023-11-18T15:34:24;7.30;99.90
14170;DHT22;63889;50.596;8.690;2023-11-18T15:36:50;7.30;99.90
14170;DHT22;63889;50.596;8.690;2023-11-18T15:39:17;7.30;99.90
14170;DHT22;63889;50.596;8.690;2023-11-18T15:41:42;7.30;99.90
14170;DHT22;63889;50.596;8.690;2023-11-18T15:44:08;7.40;99.90
14170;DHT22;63889;50.596;8.690;2023-11-18T15:46:37;7.40;99.90
14170;DHT22;63889;50.596;8.690;2023-11-18T15:49:03;7.40;99.90
14170;DHT22;63889;50.596;8.690;2023-11-18T15:51:28;7.50;99.90
14170;DHT22;63889;50.596;8.690;2023-11-18T15:53:56;7.50;99.90
14170;DHT22;63889;50.596;8.690;2023-11-18T15:56:21;7.50;99.90
14170;DHT22;63889;50.596;8.690;2023-11-18T15:58:48;7.50;99.90
14170;DHT22;63889;50.596;8.690;2023-11-18T16:01:13;7.40;99.90
14170;DHT22;63889;50.596;8.690;2023-11-18T16:03:39;7.50;99.90
14170;DHT22;63889;50.596;8.690;2023-11-18T16:06:05;7.20;99.90
14170;DHT22;63889;50.596;8.690;2023-11-18T16:08:31;7.20;99.90
14170;DHT22;63889;50.596;8.690;2023-11-18T16:10:56;7.10;99.90